Terminal Aerodrome Forecast
Issued by NWS

Home | Current Version | Previous Version | Text Only | Print | Product List | Glossary On
Versions: 1 2 3 4 5 6 7 8 9 10 11 12 13 14 15
000
FTUS42 TJSJ 110008 CCA
TAFJPS
TAF COR
TJPS 110008Z 1100/1124 05005KT P6SM SKC
      TEMPO 1100/1102 5SM -SHRA OVC020
     FM111300 13010G15KT P6SM FEW030 FEW050
     FM112300 05005KT P6SM SKC
      AMD NOT SKED TIL 110300=

USA.gov is the U.S. government's official web portal to all federal, state and local government web resources and services.